createdAt,value
2018-06-18T00:01:09.793Z,2.00
2018-06-18T00:03:39.195Z,2.47
2018-06-18T00:06:08.520Z,1.33
2018-06-18T00:08:37.928Z,1.67
2018-06-18T00:11:07.248Z,1.57
2018-06-18T00:13:36.887Z,1.70
2018-06-18T00:16:06.684Z,1.50
2018-06-18T00:18:36.132Z,1.73
2018-06-18T00:21:05.467Z,1.67
2018-06-18T00:23:34.848Z,1.80
2018-06-18T00:26:04.177Z,1.70
2018-06-18T00:28:33.556Z,1.47
2018-06-18T00:31:02.937Z,1.63
2018-06-18T00:33:32.233Z,1.77
2018-06-18T00:36:01.549Z,1.97
2018-06-18T00:38:30.884Z,1.50
2018-06-18T00:41:00.221Z,1.57
2018-06-18T00:43:29.555Z,2.07
2018-06-18T00:45:58.863Z,1.43
2018-06-18T00:48:28.170Z,2.10
2018-06-18T00:50:57.495Z,2.10
2018-06-18T00:53:26.822Z,1.60
2018-06-18T00:56:10.284Z,2.45
2018-06-18T00:58:40.052Z,1.73
2018-06-18T01:01:09.883Z,1.73
2018-06-18T01:03:39.211Z,1.70
2018-06-18T01:06:08.782Z,1.20
2018-06-18T01:08:38.146Z,1.70
2018-06-18T01:11:07.472Z,1.83
2018-06-18T01:13:36.808Z,1.80
2018-06-18T01:16:06.251Z,1.80
2018-06-18T01:18:35.615Z,1.93
2018-06-18T01:21:04.944Z,1.57
2018-06-18T01:24:17.151Z,2.13
2018-06-18T01:26:46.491Z,2.03
2018-06-18T01:29:15.805Z,2.33
2018-06-18T01:31:45.114Z,2.40
2018-06-18T01:34:25.047Z,2.50
2018-06-18T01:36:54.756Z,2.63
2018-06-18T01:39:24.684Z,2.72
2018-06-18T01:41:54.275Z,3.20
2018-06-18T01:44:23.585Z,2.40
2018-06-18T01:46:52.945Z,2.67
2018-06-18T01:49:22.335Z,2.10
2018-06-18T01:51:51.664Z,2.60
2018-06-18T01:54:20.975Z,2.27
2018-06-18T01:56:50.331Z,2.33
2018-06-18T01:59:19.631Z,2.10
2018-06-18T02:01:48.944Z,2.20
2018-06-18T02:04:18.361Z,2.40
2018-06-18T02:06:47.672Z,2.30
2018-06-18T02:09:17.041Z,1.67
2018-06-18T02:11:46.351Z,2.20
2018-06-18T02:14:15.763Z,2.53
2018-06-18T02:16:45.205Z,2.30
2018-06-18T02:19:14.528Z,2.62
2018-06-18T02:21:43.888Z,2.00
2018-06-18T02:24:13.208Z,2.10
2018-06-18T02:26:42.615Z,1.73
2018-06-18T02:29:17.097Z,2.57
2018-06-18T02:31:51.744Z,2.10
2018-06-18T02:34:26.389Z,1.80
2018-06-18T02:37:01.051Z,2.00
2018-06-18T02:39:30.444Z,1.50
2018-06-18T02:41:59.746Z,1.83
2018-06-18T02:44:29.064Z,1.93
2018-06-18T02:46:58.392Z,2.10
2018-06-18T02:49:27.757Z,1.70
2018-06-18T02:51:57.117Z,1.40
2018-06-18T02:54:26.436Z,1.87
2018-06-18T02:57:04.159Z,1.77
2018-06-18T02:59:33.545Z,1.70
2018-06-18T03:02:02.852Z,1.37
2018-06-18T03:04:32.184Z,1.60
2018-06-18T03:07:01.532Z,2.03
2018-06-18T03:09:30.877Z,1.40
2018-06-18T03:12:00.172Z,1.50
2018-06-18T03:14:29.583Z,1.53
2018-06-18T03:16:58.904Z,1.70
2018-06-18T03:19:33.583Z,1.40
2018-06-18T03:22:08.092Z,2.47
2018-06-18T03:24:42.818Z,2.00
2018-06-18T03:27:17.343Z,1.50
2018-06-18T03:29:46.793Z,1.47
2018-06-18T03:32:18.400Z,1.60
2018-06-18T03:34:47.793Z,1.90
2018-06-18T03:37:19.668Z,1.53
2018-06-18T03:39:49.000Z,2.20
2018-06-18T03:42:18.362Z,1.70
2018-06-18T03:44:56.115Z,1.67
2018-06-18T03:47:28.495Z,1.70
2018-06-18T03:49:57.884Z,1.67
2018-06-18T03:52:27.212Z,1.90
2018-06-18T03:55:00.296Z,1.93
2018-06-18T03:57:29.699Z,1.63
2018-06-18T03:59:59.045Z,1.90
2018-06-18T04:02:42.719Z,2.00
2018-06-18T04:05:17.213Z,1.73
2018-06-18T04:07:59.596Z,1.90
2018-06-18T04:10:39.439Z,1.90
2018-06-18T04:13:09.456Z,1.83
2018-06-18T04:15:38.807Z,1.80
2018-06-18T04:18:08.128Z,3.67
2018-06-18T04:20:42.536Z,3.37
2018-06-18T04:23:11.604Z,1.73
2018-06-18T04:25:40.932Z,2.00
2018-06-18T04:28:10.389Z,1.47
2018-06-18T04:30:39.715Z,1.90
2018-06-18T04:33:09.752Z,1.40
2018-06-18T04:35:38.907Z,2.03
2018-06-18T04:38:08.235Z,1.57
2018-06-18T04:40:37.556Z,1.60
2018-06-18T04:43:12.245Z,1.57
2018-06-18T04:45:45.828Z,1.77
2018-06-18T04:48:20.451Z,1.97
2018-06-18T04:50:55.029Z,1.97
2018-06-18T04:53:24.373Z,1.70
2018-06-18T04:55:53.683Z,1.70
2018-06-18T04:58:22.998Z,1.70
2018-06-18T05:01:05.218Z,1.60
2018-06-18T05:03:34.587Z,1.37
2018-06-18T05:06:03.916Z,1.70
2018-06-18T05:10:55.674Z,1.20
2018-06-18T05:13:25.180Z,1.80
2018-06-18T05:15:55.327Z,1.30
2018-06-18T05:18:24.684Z,1.30
2018-06-18T05:20:54.004Z,1.70
2018-06-18T05:23:23.345Z,1.70
2018-06-18T05:25:58.844Z,2.00
2018-06-18T05:28:28.171Z,1.80
2018-06-18T05:30:58.080Z,1.53
2018-06-18T05:33:27.435Z,1.97
2018-06-18T05:35:56.869Z,1.80
2018-06-18T05:38:33.807Z,1.60
2018-06-18T05:41:03.132Z,1.97
2018-06-18T05:43:32.781Z,1.70
2018-06-18T05:46:02.085Z,1.63
2018-06-18T05:48:31.399Z,1.73
2018-06-18T05:51:00.756Z,1.30
2018-06-18T05:53:30.084Z,2.67
2018-06-18T05:55:59.421Z,1.90
2018-06-18T05:58:28.734Z,1.40
2018-06-18T06:00:58.044Z,1.80
2018-06-18T06:03:27.391Z,1.53
2018-06-18T06:05:56.763Z,1.90
2018-06-18T06:08:26.097Z,1.37
2018-06-18T06:10:55.142Z,1.60
2018-06-18T06:13:24.450Z,1.60
2018-06-18T06:15:53.790Z,1.70
2018-06-18T06:18:23.120Z,2.10
2018-06-18T06:20:57.172Z,2.20
2018-06-18T06:23:26.536Z,1.60
2018-06-18T06:25:55.852Z,1.30
2018-06-18T06:28:25.342Z,1.57
2018-06-18T06:30:54.829Z,1.87
2018-06-18T06:33:25.884Z,1.33
2018-06-18T06:35:57.077Z,1.17
2018-06-18T06:38:26.428Z,1.70
2018-06-18T06:40:55.765Z,2.70
2018-06-18T06:43:25.068Z,1.30
2018-06-18T06:45:54.387Z,1.60
2018-06-18T06:48:23.740Z,1.57
2018-06-18T06:50:53.416Z,1.45
2018-06-18T06:53:22.768Z,1.60
2018-06-18T06:55:52.136Z,1.80
2018-06-18T06:58:21.455Z,1.60
2018-06-18T07:00:50.833Z,1.30
2018-06-18T07:03:20.167Z,1.67
2018-06-18T07:05:49.533Z,1.30
2018-06-18T07:08:18.856Z,1.70
2018-06-18T07:10:48.164Z,2.37
2018-06-18T07:13:17.605Z,2.70
2018-06-18T07:15:46.854Z,1.27
2018-06-18T07:18:16.137Z,1.43
2018-06-18T07:20:45.468Z,1.17
2018-06-18T07:23:14.789Z,1.40
2018-06-18T07:25:44.109Z,1.70
2018-06-18T07:28:13.493Z,1.57
2018-06-18T07:30:42.896Z,1.57
2018-06-18T07:33:12.108Z,1.07
2018-06-18T07:35:41.452Z,1.53
2018-06-18T07:38:10.813Z,1.50
2018-06-18T07:40:40.129Z,1.60
2018-06-18T07:43:09.461Z,1.70
2018-06-18T07:45:38.821Z,1.40
2018-06-18T07:48:08.118Z,1.70
2018-06-18T07:50:37.437Z,1.33
2018-06-18T07:53:06.856Z,1.87
2018-06-18T07:55:36.277Z,1.80
2018-06-18T07:58:06.215Z,2.20
2018-06-18T08:00:35.531Z,1.40
2018-06-18T08:03:04.885Z,1.70
2018-06-18T08:05:34.529Z,1.50
2018-06-18T08:08:03.922Z,1.20
2018-06-18T08:10:33.240Z,1.23
2018-06-18T08:13:02.579Z,1.80
2018-06-18T08:15:31.703Z,1.50
2018-06-18T08:18:01.009Z,1.57
2018-06-18T08:20:30.329Z,3.00
2018-06-18T08:22:59.690Z,2.80
2018-06-18T08:25:28.995Z,2.10
2018-06-18T08:27:58.320Z,1.50
2018-06-18T08:30:27.648Z,1.40
2018-06-18T08:32:56.960Z,1.13
2018-06-18T08:35:26.311Z,1.50
2018-06-18T08:37:55.668Z,1.60
2018-06-18T08:40:25.005Z,1.70
2018-06-18T08:42:54.385Z,1.17
2018-06-18T08:45:23.708Z,1.23
2018-06-18T08:47:53.021Z,1.50
2018-06-18T08:50:27.602Z,1.20
2018-06-18T08:53:02.296Z,1.37
2018-06-18T08:55:36.792Z,1.50
2018-06-18T08:58:11.629Z,1.00
2018-06-18T09:00:46.161Z,1.77
2018-06-18T09:03:20.743Z,1.40
2018-06-18T09:05:54.726Z,1.60
2018-06-18T09:08:27.919Z,1.33
2018-06-18T09:10:57.423Z,1.57
2018-06-18T09:13:27.173Z,1.87
2018-06-18T09:15:56.528Z,1.13
2018-06-18T09:18:25.904Z,1.03
2018-06-18T09:20:55.236Z,1.30
2018-06-18T09:23:24.603Z,1.10
2018-06-18T09:25:57.888Z,1.30
2018-06-18T09:28:29.537Z,1.10
2018-06-18T09:30:58.980Z,2.80
2018-06-18T09:33:28.328Z,1.00
2018-06-18T09:35:57.750Z,1.53
2018-06-18T09:38:27.060Z,1.10
2018-06-18T09:40:56.383Z,0.80
2018-06-18T09:43:25.740Z,0.80
2018-06-18T09:45:55.359Z,0.77
2018-06-18T09:48:30.159Z,0.70
2018-06-18T09:51:04.933Z,0.90
2018-06-18T09:53:39.734Z,1.00
2018-06-18T09:56:14.143Z,0.93
2018-06-18T09:58:48.691Z,0.90
2018-06-18T10:01:22.091Z,0.67
2018-06-18T10:03:51.917Z,0.60
2018-06-18T10:06:23.185Z,0.80
2018-06-18T10:08:52.514Z,1.00
2018-06-18T10:11:21.851Z,0.87
2018-06-18T10:13:51.207Z,0.90
2018-06-18T10:16:20.536Z,6.60
2018-06-18T10:18:49.889Z,0.80
2018-06-18T10:21:19.236Z,1.13
2018-06-18T10:23:48.597Z,0.83
2018-06-18T10:26:18.248Z,0.90
2018-06-18T10:28:47.895Z,0.77
2018-06-18T10:31:17.577Z,0.70
2018-06-18T10:33:52.297Z,0.90
2018-06-18T10:36:26.735Z,0.80
2018-06-18T10:39:01.451Z,0.90
2018-06-18T10:41:36.031Z,0.67
2018-06-18T10:44:05.396Z,0.63
2018-06-18T10:46:34.708Z,0.60
2018-06-18T10:49:04.117Z,0.83
2018-06-18T10:51:33.389Z,0.60
2018-06-18T10:54:02.771Z,0.50
2018-06-18T10:56:32.166Z,0.70
2018-06-18T10:59:01.512Z,0.70
2018-06-18T11:01:33.144Z,0.50
2018-06-18T11:04:03.384Z,0.40
2018-06-18T11:06:37.788Z,0.50
2018-06-18T11:09:11.295Z,0.40
2018-06-18T11:11:40.636Z,0.67
2018-06-18T11:14:09.988Z,0.60
2018-06-18T11:16:39.478Z,0.50
2018-06-18T11:19:13.715Z,0.50
2018-06-18T11:21:48.259Z,0.40
2018-06-18T11:24:22.873Z,0.50
2018-06-18T11:26:57.577Z,0.50
2018-06-18T11:29:26.956Z,0.70
2018-06-18T11:31:56.280Z,0.77
2018-06-18T11:34:25.613Z,0.60
2018-06-18T11:36:54.961Z,0.60
2018-06-18T11:39:24.387Z,0.63
2018-06-18T11:41:53.727Z,0.50
2018-06-18T11:44:22.964Z,0.73
2018-06-18T11:46:52.305Z,0.50
2018-06-18T11:49:21.656Z,0.60
2018-06-18T11:51:50.982Z,0.60
2018-06-18T11:54:20.432Z,0.50
2018-06-18T11:56:49.797Z,0.30
2018-06-18T11:59:24.467Z,0.47
2018-06-18T12:01:59.071Z,0.40
2018-06-18T12:04:33.583Z,0.40
2018-06-18T12:07:08.299Z,0.30
2018-06-18T12:09:42.273Z,0.50
2018-06-18T12:12:11.579Z,0.30
2018-06-18T12:14:40.951Z,0.27
2018-06-18T12:17:10.291Z,0.40
2018-06-18T12:19:39.630Z,0.40
2018-06-18T12:22:09.024Z,0.60
2018-06-18T12:24:38.383Z,0.50
2018-06-18T12:27:08.900Z,0.60
2018-06-18T12:29:38.303Z,0.50
2018-06-18T12:32:07.644Z,0.50
2018-06-18T12:34:37.002Z,0.33
2018-06-18T12:37:06.405Z,0.33
2018-06-18T12:39:35.873Z,0.50
2018-06-18T12:42:07.386Z,0.60
2018-06-18T12:44:44.593Z,0.47
2018-06-18T12:47:19.140Z,0.50
2018-06-18T12:49:53.664Z,0.40
2018-06-18T12:52:28.280Z,0.40
2018-06-18T12:55:02.870Z,0.70
2018-06-18T12:57:32.212Z,0.90
2018-06-18T13:00:01.588Z,0.60
2018-06-18T13:02:36.588Z,0.43
2018-06-18T13:05:06.407Z,0.50
2018-06-18T13:07:35.760Z,0.60
2018-06-18T13:10:05.261Z,1.03
2018-06-18T13:12:34.634Z,0.73
2018-06-18T13:15:04.010Z,0.60
2018-06-18T13:17:33.385Z,0.60
2018-06-18T13:20:02.740Z,0.50
2018-06-18T13:22:32.109Z,0.60
2018-06-18T13:25:01.456Z,0.40
2018-06-18T13:27:36.064Z,0.80
2018-06-18T13:30:05.569Z,0.70
2018-06-18T13:32:34.965Z,0.60
2018-06-18T13:35:04.428Z,0.63
2018-06-18T13:37:39.147Z,0.40
2018-06-18T13:40:13.682Z,0.60
2018-06-18T13:42:48.381Z,0.50
2018-06-18T13:45:22.931Z,0.53
2018-06-18T13:47:57.522Z,0.40
2018-06-18T13:50:27.038Z,0.60
2018-06-18T13:52:56.361Z,0.60
2018-06-18T13:55:25.699Z,0.77
2018-06-18T13:57:55.078Z,0.40
2018-06-18T14:00:24.425Z,0.50
2018-06-18T14:02:53.756Z,0.70
2018-06-18T14:05:23.355Z,0.70
2018-06-18T14:07:53.056Z,0.50
2018-06-18T14:10:22.758Z,0.60
2018-06-18T14:12:52.472Z,0.80
2018-06-18T14:15:22.161Z,0.50
2018-06-18T14:17:51.869Z,0.70
2018-06-18T14:20:23.261Z,0.60
2018-06-18T14:22:53.369Z,0.60
2018-06-18T14:25:22.775Z,0.80
2018-06-18T14:27:52.107Z,0.90
2018-06-18T14:30:26.529Z,0.73
2018-06-18T14:33:01.185Z,0.80
2018-06-18T14:35:35.708Z,0.90
2018-06-18T14:38:10.337Z,0.80
2018-06-18T14:40:39.723Z,0.70
2018-06-18T14:43:09.128Z,0.70
2018-06-18T14:45:38.648Z,0.70
2018-06-18T14:48:07.966Z,0.70
2018-06-18T14:50:37.317Z,0.93
2018-06-18T14:53:06.687Z,0.93
2018-06-18T14:55:36.044Z,1.20
2018-06-18T14:58:05.434Z,0.93
2018-06-18T15:00:35.801Z,1.00
2018-06-18T15:03:05.140Z,0.87
2018-06-18T15:05:39.588Z,1.17
2018-06-18T15:08:08.983Z,0.80
2018-06-18T15:10:43.423Z,0.70
2018-06-18T15:13:14.923Z,0.90
2018-06-18T15:15:49.651Z,0.80
2018-06-18T15:18:18.991Z,1.07
2018-06-18T15:20:49.292Z,0.70
2018-06-18T15:23:18.701Z,1.07
2018-06-18T15:25:50.602Z,0.70
2018-06-18T15:28:19.931Z,0.63
2018-06-18T15:30:50.388Z,0.90
2018-06-18T15:33:19.769Z,0.83
2018-06-18T15:35:49.177Z,0.60
2018-06-18T15:38:18.648Z,0.73
2018-06-18T15:40:47.884Z,0.90
2018-06-18T15:43:17.241Z,0.93
2018-06-18T15:45:46.608Z,1.17
2018-06-18T15:48:15.931Z,0.90
2018-06-18T15:50:45.264Z,1.13
2018-06-18T15:53:14.597Z,0.80
2018-06-18T15:55:43.936Z,0.73
2018-06-18T15:58:13.271Z,0.90
2018-06-18T16:00:42.628Z,0.80
2018-06-18T16:03:11.940Z,0.70
2018-06-18T16:05:41.337Z,0.90
2018-06-18T16:08:10.684Z,0.87
2018-06-18T16:10:40.025Z,1.10
2018-06-18T16:13:09.449Z,1.10
2018-06-18T16:15:38.772Z,0.97
2018-06-18T16:18:08.112Z,0.70
2018-06-18T16:20:37.432Z,0.80
2018-06-18T16:23:06.849Z,1.00
2018-06-18T16:25:36.206Z,1.00
2018-06-18T16:28:05.915Z,0.63
2018-06-18T16:30:35.237Z,0.80
2018-06-18T16:33:04.756Z,0.90
2018-06-18T16:35:34.429Z,0.83
2018-06-18T16:38:04.039Z,1.07
2018-06-18T16:40:33.665Z,1.00
2018-06-18T16:43:03.244Z,0.80
2018-06-18T16:45:32.956Z,0.90
2018-06-18T16:48:02.615Z,0.90
2018-06-18T16:50:32.388Z,1.13
2018-06-18T16:53:02.050Z,1.00
2018-06-18T16:55:31.418Z,1.10
2018-06-18T16:58:01.080Z,0.90
2018-06-18T17:00:30.810Z,1.00
2018-06-18T17:03:00.488Z,0.98
2018-06-18T17:05:29.660Z,1.13
2018-06-18T17:07:58.991Z,0.97
2018-06-18T17:10:28.509Z,1.37
2018-06-18T17:12:57.829Z,1.00
2018-06-18T17:15:27.176Z,1.40
2018-06-18T17:17:56.585Z,1.00
2018-06-18T17:20:25.894Z,0.70
2018-06-18T17:22:55.315Z,0.90
2018-06-18T17:25:24.671Z,0.70
2018-06-18T17:27:54.075Z,0.77
2018-06-18T17:30:23.452Z,2.03
2018-06-18T17:32:52.811Z,0.90
2018-06-18T17:35:22.208Z,1.20
2018-06-18T17:37:51.603Z,1.20
2018-06-18T17:40:21.028Z,0.90
2018-06-18T17:42:50.341Z,1.00
2018-06-18T17:45:19.756Z,1.30
2018-06-18T17:47:49.232Z,1.00
2018-06-18T17:50:18.524Z,0.80
2018-06-18T17:52:47.850Z,1.37
2018-06-18T17:55:17.178Z,1.00
2018-06-18T17:57:46.492Z,1.00
2018-06-18T18:00:15.844Z,1.03
2018-06-18T18:02:45.172Z,0.90
2018-06-18T18:05:14.599Z,1.10
2018-06-18T18:07:44.017Z,1.00
2018-06-18T18:10:13.420Z,2.20
2018-06-18T18:12:42.843Z,1.90
2018-06-18T18:15:12.253Z,1.17
2018-06-18T18:17:41.727Z,1.20
2018-06-18T18:20:11.089Z,1.23
2018-06-18T18:22:40.451Z,1.00
2018-06-18T18:25:09.888Z,0.93
2018-06-18T18:27:39.265Z,1.10
2018-06-18T18:30:08.632Z,1.20
2018-06-18T18:32:38.036Z,1.63
2018-06-18T18:35:07.380Z,1.40
2018-06-18T18:37:36.737Z,1.13
2018-06-18T18:40:06.213Z,1.20
2018-06-18T18:42:35.582Z,1.70
2018-06-18T18:45:04.968Z,1.30
2018-06-18T18:47:34.753Z,1.10
2018-06-18T18:50:04.564Z,0.80
2018-06-18T18:52:34.454Z,1.73
2018-06-18T18:55:47.757Z,3.10
2018-06-18T18:59:04.043Z,1.37
2018-06-18T19:01:33.906Z,1.33
2018-06-18T19:04:07.248Z,1.40
2018-06-18T19:06:37.775Z,1.60
2018-06-18T19:09:11.796Z,0.90
2018-06-18T19:11:42.585Z,1.17
2018-06-18T19:14:14.414Z,1.20
2018-06-18T19:16:47.335Z,1.50
2018-06-18T19:19:19.860Z,2.17
2018-06-18T19:21:50.877Z,2.83
2018-06-18T19:24:21.165Z,1.90
2018-06-18T19:26:51.132Z,1.60
2018-06-18T19:29:22.027Z,3.10
2018-06-18T19:31:54.012Z,2.63
2018-06-18T19:34:28.348Z,1.40
2018-06-18T19:36:59.486Z,1.80
2018-06-18T19:39:34.608Z,1.73
2018-06-18T19:42:05.289Z,1.30
2018-06-18T19:44:36.625Z,1.40
2018-06-18T19:47:24.200Z,1.77
2018-06-18T19:49:54.198Z,1.70
2018-06-18T19:52:24.178Z,1.80
2018-06-18T19:54:57.831Z,1.60
2018-06-18T19:57:27.972Z,1.57
2018-06-18T19:59:59.275Z,1.60
2018-06-18T20:02:29.329Z,1.90
2018-06-18T20:05:03.808Z,1.50
2018-06-18T20:07:35.117Z,1.10
2018-06-18T20:10:05.859Z,1.43
2018-06-18T20:12:36.673Z,1.67
2018-06-18T20:15:06.819Z,1.73
2018-06-18T20:17:36.461Z,1.33
2018-06-18T20:20:07.706Z,1.70
2018-06-18T20:22:38.142Z,1.20
2018-06-18T20:25:09.288Z,1.50
2018-06-18T20:27:38.967Z,1.63
2018-06-18T20:30:11.055Z,1.60
2018-06-18T20:32:41.006Z,1.63
2018-06-18T20:35:47.832Z,1.30
2018-06-18T20:38:17.169Z,1.20
2018-06-18T20:40:46.508Z,1.47
2018-06-18T20:43:15.870Z,1.77
2018-06-18T20:45:45.220Z,2.20
2018-06-18T20:48:14.585Z,1.43
2018-06-18T20:50:44.031Z,1.73
2018-06-18T20:53:13.325Z,1.47
2018-06-18T20:55:42.502Z,1.80
2018-06-18T20:58:12.270Z,1.70
2018-06-18T21:00:41.607Z,1.43
2018-06-18T21:03:10.995Z,1.27
2018-06-18T21:05:40.409Z,2.03
2018-06-18T21:08:10.054Z,1.33
2018-06-18T21:10:39.364Z,1.70
2018-06-18T21:13:08.689Z,1.40
2018-06-18T21:15:38.026Z,1.60
2018-06-18T21:18:07.471Z,1.80
2018-06-18T21:20:36.824Z,1.40
2018-06-18T21:23:06.170Z,1.60
2018-06-18T21:25:35.531Z,2.23
2018-06-18T21:28:04.915Z,1.57
2018-06-18T21:30:34.240Z,1.57
2018-06-18T21:33:03.589Z,1.60
2018-06-18T21:35:34.115Z,1.60
2018-06-18T21:38:03.836Z,1.77
2018-06-18T21:40:33.422Z,1.33
2018-06-18T21:43:03.061Z,1.98
2018-06-18T21:45:32.462Z,1.80
2018-06-18T21:48:01.813Z,1.70
2018-06-18T21:50:31.128Z,1.87
2018-06-18T21:53:00.464Z,1.30
2018-06-18T21:55:29.928Z,1.60
2018-06-18T21:57:59.261Z,1.40
2018-06-18T22:00:35.551Z,1.30
2018-06-18T22:03:05.075Z,1.37
2018-06-18T22:05:34.770Z,1.87
2018-06-18T22:08:07.275Z,1.70
2018-06-18T22:10:36.974Z,1.40
2018-06-18T22:13:06.746Z,1.50
2018-06-18T22:15:36.614Z,1.87
2018-06-18T22:18:06.648Z,2.17
2018-06-18T22:20:36.320Z,1.77
2018-06-18T22:23:06.193Z,1.70
2018-06-18T22:25:35.784Z,1.60
2018-06-18T22:28:09.794Z,2.10
2018-06-18T22:30:39.509Z,1.80
2018-06-18T22:33:09.225Z,1.80
2018-06-18T22:35:38.584Z,1.77
2018-06-18T22:38:08.035Z,2.10
2018-06-18T22:40:37.428Z,1.90
2018-06-18T22:43:06.915Z,1.83
2018-06-18T22:45:36.273Z,2.30
2018-06-18T22:48:05.753Z,1.70
2018-06-18T22:50:35.078Z,1.67
2018-06-18T22:53:04.503Z,1.47
2018-06-18T22:55:33.893Z,1.87
2018-06-18T22:58:03.264Z,1.97
2018-06-18T23:00:32.615Z,2.20
2018-06-18T23:03:01.968Z,2.07
2018-06-18T23:05:31.272Z,2.03
2018-06-18T23:08:00.640Z,1.70
2018-06-18T23:10:29.958Z,1.87
2018-06-18T23:12:59.544Z,2.13
2018-06-18T23:15:28.888Z,1.90
2018-06-18T23:17:58.232Z,2.13
2018-06-18T23:20:27.564Z,2.13
2018-06-18T23:22:56.897Z,2.13
2018-06-18T23:25:26.248Z,2.00
2018-06-18T23:27:55.591Z,1.80
2018-06-18T23:30:24.927Z,2.00
2018-06-18T23:32:54.268Z,1.90
2018-06-18T23:35:23.651Z,1.60
2018-06-18T23:37:52.989Z,1.70
2018-06-18T23:40:22.313Z,2.20
2018-06-18T23:42:51.651Z,1.70
2018-06-18T23:45:20.976Z,1.57
2018-06-18T23:47:50.092Z,2.10
2018-06-18T23:50:19.447Z,2.00
2018-06-18T23:52:48.815Z,1.80
2018-06-18T23:55:18.152Z,1.77
2018-06-18T23:57:47.916Z,2.00
